createdAt,value
2018-08-24T00:00:00.803Z,60340.98
2018-08-24T00:02:28.990Z,60345.04
2018-08-24T00:04:57.158Z,60346.06
2018-08-24T00:07:25.402Z,60358.25
2018-08-24T00:09:53.522Z,60308.46
2018-08-24T00:12:21.746Z,60323.71
2018-08-24T00:14:49.931Z,60351.14
2018-08-24T00:17:23.219Z,60320.66
2018-08-24T00:19:51.407Z,60339.96
2018-08-24T00:22:19.571Z,60337.93
2018-08-24T00:24:47.750Z,60309.48
2018-08-24T00:27:15.941Z,60330.82
2018-08-24T00:29:44.122Z,60315.57
2018-08-24T00:32:12.294Z,60343.01
2018-08-24T00:34:40.482Z,60343.01
2018-08-24T00:37:08.659Z,60335.90
2018-08-24T00:39:36.871Z,60346.06
2018-08-24T00:42:05.080Z,60324.72
2018-08-24T00:44:33.246Z,60344.03
2018-08-24T00:47:01.544Z,60336.91
2018-08-24T00:49:29.718Z,60334.88
2018-08-24T00:51:58.246Z,60350.12
2018-08-24T00:54:26.420Z,60350.12
2018-08-24T00:56:54.606Z,60342.00
2018-08-24T00:59:22.791Z,60356.22
2018-08-24T01:01:50.986Z,60359.27
2018-08-24T01:04:24.466Z,60342.00
2018-08-24T01:06:52.663Z,60366.39
2018-08-24T01:09:20.870Z,60370.45
2018-08-24T01:11:54.423Z,60357.24
2018-08-24T01:14:22.620Z,60339.96
2018-08-24T01:16:55.980Z,60381.63
2018-08-24T01:19:24.162Z,60367.40
2018-08-24T01:21:52.377Z,60355.21
2018-08-24T01:24:22.163Z,60358.25
2018-08-24T01:26:55.578Z,60355.21
2018-08-24T01:29:23.786Z,60363.34
2018-08-24T01:31:51.964Z,60392.80
2018-08-24T01:34:20.163Z,60371.46
2018-08-24T01:36:48.333Z,60365.37
2018-08-24T01:39:16.518Z,60370.45
2018-08-24T01:41:44.698Z,60358.25
2018-08-24T01:44:12.879Z,60372.48
2018-08-24T01:46:41.078Z,60379.59
2018-08-24T01:49:09.248Z,60351.14
2018-08-24T01:51:37.439Z,60353.18
2018-08-24T01:54:05.652Z,60365.37
2018-08-24T01:56:33.815Z,60378.58
2018-08-24T01:59:02.079Z,60366.39
2018-08-24T02:01:30.230Z,60375.53
2018-08-24T02:03:58.446Z,60382.64
2018-08-24T02:06:26.634Z,60376.55
2018-08-24T02:08:54.827Z,60376.55
2018-08-24T02:11:28.156Z,60395.86
2018-08-24T02:14:01.597Z,60386.71
2018-08-24T02:16:32.976Z,60385.69
2018-08-24T02:19:06.474Z,60386.71
2018-08-24T02:21:40.027Z,60394.84
2018-08-24T02:24:09.279Z,60343.01
2018-08-24T02:26:37.580Z,60387.72
2018-08-24T02:29:05.788Z,60366.39
2018-08-24T02:31:50.282Z,60398.90
2018-08-24T02:34:18.481Z,60382.64
2018-08-24T02:36:46.805Z,60383.66
2018-08-24T02:39:16.345Z,60390.77
2018-08-24T02:41:44.686Z,60374.52
2018-08-24T02:44:13.220Z,60397.89
2018-08-24T02:46:42.487Z,60384.68
2018-08-24T02:49:10.704Z,60400.93
2018-08-24T02:51:38.914Z,60374.52
2018-08-24T02:54:07.118Z,60400.93
2018-08-24T02:56:35.323Z,60379.59
2018-08-24T02:59:03.555Z,60386.71
2018-08-24T03:01:31.742Z,60419.23
2018-08-24T03:03:59.924Z,60396.87
2018-08-24T03:06:28.122Z,60427.36
2018-08-24T03:08:56.328Z,60379.59
2018-08-24T03:11:24.559Z,60394.84
2018-08-24T03:13:53.028Z,60412.11
2018-08-24T03:16:21.317Z,60391.79
2018-08-24T03:18:49.394Z,60428.37
2018-08-24T03:21:17.756Z,60393.82
2018-08-24T03:23:46.027Z,60401.95
2018-08-24T03:26:14.416Z,60426.34
2018-08-24T03:28:42.595Z,60410.08
2018-08-24T03:31:10.819Z,60380.61
2018-08-24T03:33:38.999Z,60408.05
2018-08-24T03:36:07.307Z,60394.84
2018-08-24T03:38:35.497Z,60395.86
2018-08-24T03:41:03.703Z,60416.18
2018-08-24T03:43:31.880Z,60423.29
2018-08-24T03:46:00.109Z,60395.86
2018-08-24T03:48:28.252Z,60412.11
2018-08-24T03:50:56.485Z,60415.16
2018-08-24T03:53:24.685Z,60400.93
2018-08-24T03:55:52.858Z,60417.20
2018-08-24T03:58:21.047Z,60396.87
2018-08-24T04:00:49.254Z,60413.13
2018-08-24T04:03:17.458Z,60399.92
2018-08-24T04:05:45.690Z,60415.16
2018-08-24T04:08:13.879Z,60418.21
2018-08-24T04:10:42.090Z,60409.07
2018-08-24T04:13:10.288Z,60408.05
2018-08-24T04:15:38.467Z,60401.95
2018-08-24T04:18:06.722Z,60389.76
2018-08-24T04:20:34.952Z,60406.02
2018-08-24T04:23:03.199Z,60385.69
2018-08-24T04:25:31.399Z,60412.11
2018-08-24T04:27:59.594Z,60402.97
2018-08-24T04:30:27.794Z,60393.82
2018-08-24T04:32:55.987Z,60396.87
2018-08-24T04:35:24.184Z,60407.03
2018-08-24T04:37:52.656Z,60418.21
2018-08-24T04:40:20.916Z,60409.07
2018-08-24T04:42:49.026Z,60422.27
2018-08-24T04:45:17.311Z,60413.13
2018-08-24T04:47:45.514Z,60409.07
2018-08-24T04:50:13.691Z,60383.66
2018-08-24T04:52:41.890Z,60415.16
2018-08-24T04:55:10.082Z,60407.03
2018-08-24T04:57:38.275Z,60398.90
2018-08-24T05:00:08.615Z,60395.86
2018-08-24T05:02:36.959Z,60397.89
2018-08-24T05:05:05.886Z,60410.08
2018-08-24T05:07:34.072Z,60405.00
2018-08-24T05:10:02.260Z,60415.16
2018-08-24T05:12:30.431Z,60406.02
2018-08-24T05:14:58.632Z,60396.87
2018-08-24T05:17:26.834Z,60418.21
2018-08-24T05:19:55.325Z,60384.68
2018-08-24T05:22:23.523Z,60397.89
2018-08-24T05:24:51.831Z,60408.05
2018-08-24T05:27:19.932Z,60381.63
2018-08-24T05:29:48.122Z,60413.13
2018-08-24T05:32:16.370Z,60394.84
2018-08-24T05:34:44.560Z,60400.93
2018-08-24T05:37:12.754Z,60374.52
2018-08-24T05:39:40.956Z,60400.93
2018-08-24T05:42:09.131Z,60386.71
2018-08-24T05:44:37.330Z,60388.74
2018-08-24T05:47:05.536Z,60373.50
2018-08-24T05:49:33.724Z,60392.80
2018-08-24T05:52:01.903Z,60410.08
2018-08-24T05:54:30.089Z,60402.97
2018-08-24T05:56:58.283Z,60393.82
2018-08-24T05:59:26.483Z,60386.71
2018-08-24T06:01:55.323Z,60388.74
2018-08-24T06:04:23.519Z,60375.53
2018-08-24T06:06:51.736Z,60380.61
2018-08-24T06:09:19.924Z,60410.08
2018-08-24T06:11:48.118Z,60407.03
2018-08-24T06:14:16.334Z,60383.66
2018-08-24T06:16:49.741Z,60385.69
2018-08-24T06:19:18.428Z,60394.84
2018-08-24T06:21:46.647Z,60397.89
2018-08-24T06:24:14.843Z,60393.82
2018-08-24T06:26:43.035Z,60383.66
2018-08-24T06:29:11.229Z,60384.68
2018-08-24T06:31:39.427Z,60390.77
2018-08-24T06:34:07.614Z,60387.72
2018-08-24T06:36:35.802Z,60392.80
2018-08-24T06:39:06.190Z,60385.69
2018-08-24T06:41:34.383Z,60394.84
2018-08-24T06:44:02.690Z,60385.69
2018-08-24T06:46:30.867Z,60389.76
2018-08-24T06:48:59.059Z,60368.42
2018-08-24T06:51:27.252Z,60385.69
2018-08-24T06:53:55.541Z,60379.59
2018-08-24T06:56:23.643Z,60375.53
2018-08-24T06:58:51.847Z,60400.93
2018-08-24T07:01:20.059Z,60396.87
2018-08-24T07:03:48.243Z,60379.59
2018-08-24T07:06:16.430Z,60393.82
2018-08-24T07:08:44.627Z,60390.77
2018-08-24T07:11:16.626Z,60373.50
2018-08-24T07:13:46.923Z,60391.79
2018-08-24T07:16:15.150Z,60362.32
2018-08-24T07:18:43.359Z,60389.76
2018-08-24T07:21:11.559Z,60394.84
2018-08-24T07:23:39.753Z,60400.93
2018-08-24T07:26:07.954Z,60402.97
2018-08-24T07:28:36.143Z,60396.87
2018-08-24T07:31:04.330Z,60399.92
2018-08-24T07:33:32.527Z,60405.00
2018-08-24T07:36:00.718Z,60381.63
2018-08-24T07:38:28.903Z,60380.61
2018-08-24T07:40:57.094Z,60368.42
2018-08-24T07:43:25.271Z,60396.87
2018-08-24T07:45:53.464Z,60382.64
2018-08-24T07:48:21.767Z,60391.79
2018-08-24T07:50:50.013Z,60399.92
2018-08-24T07:53:18.151Z,60386.71
2018-08-24T07:55:46.349Z,60386.71
2018-08-24T07:58:14.558Z,60387.72
2018-08-24T08:00:42.744Z,60402.97
2018-08-24T08:03:10.934Z,60391.79
2018-08-24T08:05:39.124Z,60385.69
2018-08-24T08:08:07.315Z,60380.61
2018-08-24T08:10:40.346Z,60401.95
2018-08-24T08:13:10.059Z,60405.00
2018-08-24T08:15:38.237Z,60393.82
2018-08-24T08:18:06.483Z,60375.53
2018-08-24T08:20:34.654Z,60406.02
2018-08-24T08:23:02.925Z,60395.86
2018-08-24T08:25:31.148Z,60390.77
2018-08-24T08:27:59.335Z,60401.95
2018-08-24T08:30:27.529Z,60406.02
2018-08-24T08:32:55.734Z,60380.61
2018-08-24T08:35:23.985Z,60384.68
2018-08-24T08:37:52.182Z,60398.90
2018-08-24T08:40:20.379Z,60390.77
2018-08-24T08:42:48.571Z,60397.89
2018-08-24T08:45:16.801Z,60388.74
2018-08-24T08:47:44.970Z,60381.63
2018-08-24T08:50:13.222Z,60375.53
2018-08-24T08:52:41.427Z,60377.56
2018-08-24T08:55:09.613Z,60392.80
2018-08-24T08:57:37.816Z,60377.56
2018-08-24T09:00:06.288Z,60387.72
2018-08-24T09:02:34.469Z,60387.72
2018-08-24T09:05:02.699Z,60384.68
2018-08-24T09:07:30.890Z,60395.86
2018-08-24T09:09:59.090Z,60394.84
2018-08-24T09:12:27.283Z,60384.68
2018-08-24T09:14:55.495Z,60413.13
2018-08-24T09:17:28.907Z,60376.55
2018-08-24T09:20:02.403Z,60381.63
2018-08-24T09:22:35.850Z,60378.58
2018-08-24T09:25:09.283Z,60381.63
2018-08-24T09:28:41.304Z,60400.93
2018-08-24T09:31:16.455Z,60382.64
2018-08-24T09:33:44.672Z,60380.61
2018-08-24T09:36:18.870Z,60375.53
2018-08-24T09:38:47.407Z,60367.40
2018-08-24T09:41:15.591Z,60378.58
2018-08-24T09:43:49.183Z,60388.74
2018-08-24T09:46:17.371Z,60369.43
2018-08-24T09:48:50.751Z,60366.39
2018-08-24T09:51:24.302Z,60366.39
2018-08-24T09:53:57.815Z,60345.04
2018-08-24T09:56:27.071Z,60375.53
2018-08-24T09:58:55.244Z,60352.16
2018-08-24T10:01:28.754Z,60343.01
2018-08-24T10:04:02.286Z,60355.21
2018-08-24T10:06:35.887Z,60347.08
2018-08-24T10:09:05.963Z,60336.91
2018-08-24T10:11:34.135Z,60323.71
2018-08-24T10:14:02.327Z,60355.21
2018-08-24T10:16:30.528Z,60342.00
2018-08-24T10:18:58.751Z,60351.14
2018-08-24T10:21:26.938Z,60344.03
2018-08-24T10:23:55.116Z,60345.04
2018-08-24T10:26:23.275Z,60327.77
2018-08-24T10:28:51.487Z,60338.95
2018-08-24T10:31:19.668Z,60327.77
2018-08-24T10:33:47.876Z,60339.96
2018-08-24T10:36:16.021Z,60347.08
2018-08-24T10:38:44.186Z,60340.98
2018-08-24T10:41:12.431Z,60347.08
2018-08-24T10:43:40.523Z,60348.09
2018-08-24T10:46:08.694Z,60311.51
2018-08-24T10:48:36.859Z,60324.72
2018-08-24T10:51:05.068Z,60328.79
2018-08-24T10:53:33.235Z,60317.61
2018-08-24T10:56:01.444Z,60306.43
2018-08-24T10:58:29.611Z,60320.66
2018-08-24T11:00:57.795Z,60307.45
2018-08-24T11:03:25.992Z,60288.14
2018-08-24T11:05:54.200Z,60306.43
2018-08-24T11:08:22.374Z,60292.21
2018-08-24T11:10:50.578Z,60283.06
2018-08-24T11:13:18.755Z,60344.03
2018-08-24T11:15:49.622Z,60323.71
2018-08-24T11:18:17.900Z,60313.54
2018-08-24T11:20:46.098Z,60297.29
2018-08-24T11:23:14.288Z,60292.21
2018-08-24T11:25:42.479Z,60277.98
2018-08-24T11:28:10.716Z,60282.04
2018-08-24T11:30:38.915Z,60282.04
2018-08-24T11:33:07.104Z,60299.32
2018-08-24T11:35:35.279Z,60303.38
2018-08-24T11:38:03.454Z,60286.11
2018-08-24T11:40:31.646Z,60288.14
2018-08-24T11:42:59.819Z,60268.83
2018-08-24T11:45:28.022Z,60283.06
2018-08-24T11:47:56.278Z,60312.53
2018-08-24T11:50:25.231Z,60314.56
2018-08-24T11:52:53.402Z,60311.51
2018-08-24T11:55:21.603Z,60333.87
2018-08-24T11:57:49.771Z,60301.35
2018-08-24T12:00:17.946Z,60307.45
2018-08-24T12:02:46.177Z,60286.11
2018-08-24T12:05:14.320Z,60271.88
2018-08-24T12:07:42.512Z,60280.01
2018-08-24T12:10:10.359Z,60276.96
2018-08-24T12:12:38.619Z,60295.25
2018-08-24T12:15:06.723Z,60286.11
2018-08-24T12:17:36.660Z,60298.30
2018-08-24T12:20:05.480Z,60308.46
2018-08-24T12:22:33.653Z,60297.29
2018-08-24T12:25:01.839Z,60303.38
2018-08-24T12:27:30.023Z,60301.35
2018-08-24T12:29:58.187Z,60295.25
2018-08-24T12:32:26.371Z,60264.77
2018-08-24T12:34:54.653Z,60275.95
2018-08-24T12:37:22.735Z,60280.01
2018-08-24T12:39:50.902Z,60268.83
2018-08-24T12:42:19.098Z,60269.85
2018-08-24T12:44:47.289Z,60308.46
2018-08-24T12:47:15.470Z,60290.17
2018-08-24T12:49:43.727Z,60288.14
2018-08-24T12:52:11.963Z,60278.99
2018-08-24T12:54:40.106Z,60316.59
2018-08-24T12:57:08.287Z,60278.99
2018-08-24T12:59:36.489Z,60265.79
2018-08-24T13:02:04.675Z,60270.87
2018-08-24T13:04:32.866Z,60265.79
2018-08-24T13:07:01.049Z,60255.63
2018-08-24T13:09:29.221Z,60271.88
2018-08-24T13:11:57.395Z,60268.83
2018-08-24T13:14:25.575Z,60282.04
2018-08-24T13:16:53.751Z,60285.09
2018-08-24T13:19:21.947Z,60285.09
2018-08-24T13:21:50.112Z,60255.63
2018-08-24T13:24:18.294Z,60281.03
2018-08-24T13:26:46.491Z,60274.93
2018-08-24T13:29:14.673Z,60290.17
2018-08-24T13:31:42.867Z,60269.85
2018-08-24T13:34:11.034Z,60260.71
2018-08-24T13:36:39.222Z,60286.11
2018-08-24T13:39:08.184Z,60272.90
2018-08-24T13:41:36.458Z,60287.12
2018-08-24T13:44:04.654Z,60297.29
2018-08-24T13:46:32.863Z,60266.80
2018-08-24T13:49:01.087Z,60265.79
2018-08-24T13:51:29.276Z,60262.74
2018-08-24T13:53:57.456Z,60282.04
2018-08-24T13:56:25.639Z,60280.01
2018-08-24T13:58:53.819Z,60277.98
2018-08-24T14:01:22.007Z,60273.91
2018-08-24T14:03:50.192Z,60287.12
2018-08-24T14:06:18.359Z,60282.04
2018-08-24T14:08:46.539Z,60275.95
2018-08-24T14:11:14.708Z,60281.03
2018-08-24T14:13:42.880Z,60261.72
2018-08-24T14:16:11.058Z,60283.06
2018-08-24T14:18:39.235Z,60295.25
2018-08-24T14:21:07.410Z,60286.11
2018-08-24T14:23:35.592Z,60272.90
2018-08-24T14:26:03.771Z,60288.14
2018-08-24T14:28:31.938Z,60286.11
2018-08-24T14:31:00.110Z,60291.19
2018-08-24T14:33:28.295Z,60285.09
2018-08-24T14:35:56.456Z,60285.09
2018-08-24T14:38:24.708Z,60296.27
2018-08-24T14:40:52.815Z,60291.19
2018-08-24T14:43:21.026Z,60283.06
2018-08-24T14:45:49.219Z,60276.96
2018-08-24T14:48:17.462Z,60280.01
2018-08-24T14:50:45.598Z,60292.21
2018-08-24T14:53:13.793Z,60287.12
2018-08-24T14:55:42.008Z,60274.93
2018-08-24T14:58:10.220Z,60277.98
2018-08-24T15:00:38.383Z,60318.62
2018-08-24T15:03:06.595Z,60291.19
2018-08-24T15:05:34.777Z,60306.43
2018-08-24T15:08:02.939Z,60288.14
2018-08-24T15:10:31.115Z,60280.01
2018-08-24T15:12:59.286Z,60287.12
2018-08-24T15:15:27.451Z,60283.06
2018-08-24T15:17:55.615Z,60281.03
2018-08-24T15:20:23.787Z,60273.91
2018-08-24T15:22:52.008Z,60264.77
2018-08-24T15:25:20.135Z,60297.29
2018-08-24T15:27:48.303Z,60262.74
2018-08-24T15:30:16.475Z,60297.29
2018-08-24T15:32:44.639Z,60299.32
2018-08-24T15:35:12.907Z,60287.12
2018-08-24T15:37:40.992Z,60296.27
2018-08-24T15:40:09.163Z,60294.24
2018-08-24T15:42:37.343Z,60288.14
2018-08-24T15:45:05.623Z,60299.32
2018-08-24T15:47:33.810Z,60283.06
2018-08-24T15:50:01.987Z,60284.07
2018-08-24T15:52:30.184Z,60265.79
2018-08-24T15:54:58.348Z,60297.29
2018-08-24T15:57:26.531Z,60300.34
2018-08-24T15:59:54.696Z,60291.19
2018-08-24T16:02:22.903Z,60280.01
2018-08-24T16:04:51.075Z,60292.21
2018-08-24T16:07:19.257Z,60296.27
2018-08-24T16:09:47.430Z,60295.25
2018-08-24T16:12:15.674Z,60290.17
2018-08-24T16:14:43.787Z,60313.54
2018-08-24T16:17:12.354Z,60274.93
2018-08-24T16:19:40.519Z,60314.56
2018-08-24T16:22:08.799Z,60319.64
2018-08-24T16:24:36.883Z,60287.12
2018-08-24T16:27:07.675Z,60318.62
2018-08-24T16:29:35.854Z,60297.29
2018-08-24T16:32:04.032Z,60308.46
2018-08-24T16:34:32.199Z,60298.30
2018-08-24T16:37:00.405Z,60297.29
2018-08-24T16:39:28.547Z,60297.29
2018-08-24T16:41:56.716Z,60300.34
2018-08-24T16:44:24.894Z,60317.61
2018-08-24T16:46:53.067Z,60307.45
2018-08-24T16:49:21.242Z,60315.57
2018-08-24T16:51:49.407Z,60314.56
2018-08-24T16:54:17.572Z,60321.67
2018-08-24T16:56:45.749Z,60298.30
2018-08-24T16:59:13.932Z,60319.64
2018-08-24T17:01:42.120Z,60297.29
2018-08-24T17:04:10.302Z,60299.32
2018-08-24T17:06:38.464Z,60313.54
2018-08-24T17:09:09.123Z,60314.56
2018-08-24T17:11:37.315Z,60297.29
2018-08-24T17:14:05.620Z,60312.53
2018-08-24T17:16:33.826Z,60305.41
2018-08-24T17:19:02.029Z,60311.51
2018-08-24T17:21:30.200Z,60313.54
2018-08-24T17:23:58.458Z,60302.37
2018-08-24T17:26:26.630Z,60302.37
2018-08-24T17:28:54.852Z,60312.53
2018-08-24T17:31:23.023Z,60326.75
2018-08-24T17:33:51.190Z,60312.53
2018-08-24T17:36:19.376Z,60294.24
2018-08-24T17:38:47.568Z,60336.91
2018-08-24T17:41:15.747Z,60299.32
2018-08-24T17:43:44.228Z,60304.40
2018-08-24T17:46:12.410Z,60305.41
2018-08-24T17:48:40.575Z,60337.93
2018-08-24T17:51:08.751Z,60300.34
2018-08-24T17:53:36.915Z,60314.56
2018-08-24T17:56:05.108Z,60320.66
2018-08-24T17:58:33.294Z,60308.46
2018-08-24T18:01:01.559Z,60322.69
2018-08-24T18:03:29.761Z,60320.66
2018-08-24T18:05:57.939Z,60309.48
2018-08-24T18:08:26.115Z,60333.87
2018-08-24T18:10:54.298Z,60316.59
2018-08-24T18:13:22.554Z,60310.50
2018-08-24T18:15:50.722Z,60315.57
2018-08-24T18:18:18.898Z,60332.85
2018-08-24T18:20:47.265Z,60303.38
2018-08-24T18:23:15.445Z,60310.50
2018-08-24T18:25:43.638Z,60325.74
2018-08-24T18:28:11.823Z,60336.91
2018-08-24T18:30:40.002Z,60324.72
2018-08-24T18:33:08.182Z,60324.72
2018-08-24T18:35:36.359Z,60318.62
2018-08-24T18:38:04.555Z,60315.57
2018-08-24T18:40:32.751Z,60323.71
2018-08-24T18:43:00.932Z,60344.03
2018-08-24T18:45:29.110Z,60320.66
2018-08-24T18:47:57.298Z,60338.95
2018-08-24T18:50:25.475Z,60324.72
2018-08-24T18:52:53.646Z,60314.56
2018-08-24T18:55:21.816Z,60334.88
2018-08-24T18:57:50.035Z,60329.80
2018-08-24T19:00:18.379Z,60343.01
2018-08-24T19:02:46.567Z,60308.46
2018-08-24T19:05:14.748Z,60334.88
2018-08-24T19:07:42.915Z,60320.66
2018-08-24T19:10:11.089Z,60324.72
2018-08-24T19:12:39.260Z,60320.66
2018-08-24T19:15:07.508Z,60342.00
2018-08-24T19:18:39.318Z,60317.61
2018-08-24T19:21:12.720Z,60321.67
2018-08-24T19:23:40.888Z,60337.93
2018-08-24T19:26:09.079Z,60313.54
2018-08-24T19:28:42.411Z,60324.72
2018-08-24T19:31:10.591Z,60322.69
2018-08-24T19:33:38.783Z,60312.53
2018-08-24T19:36:07.075Z,60321.67
2018-08-24T19:38:35.247Z,60339.96
2018-08-24T19:41:08.762Z,60307.45
2018-08-24T19:43:36.938Z,60333.87
2018-08-24T19:46:05.138Z,60352.16
2018-08-24T19:48:38.507Z,60334.88
2018-08-24T19:51:06.715Z,60316.59
2018-08-24T19:53:34.887Z,60317.61
2018-08-24T19:56:03.107Z,60338.95
2018-08-24T19:58:36.658Z,60317.61
2018-08-24T20:01:04.877Z,60314.56
2018-08-24T20:03:33.062Z,60317.61
2018-08-24T20:06:06.612Z,60307.45
2018-08-24T20:08:40.123Z,60342.00
2018-08-24T20:11:08.347Z,60335.90
2018-08-24T20:13:36.531Z,60331.84
2018-08-24T20:16:10.068Z,60340.98
2018-08-24T20:18:38.250Z,60326.75
2018-08-24T20:21:06.427Z,60309.48
2018-08-24T20:23:34.612Z,60342.00
2018-08-24T20:26:02.807Z,60328.79
2018-08-24T20:28:30.987Z,60332.85
2018-08-24T20:30:59.227Z,60312.53
2018-08-24T20:33:27.594Z,60326.75
2018-08-24T20:35:55.780Z,60340.98
2018-08-24T20:38:24.150Z,60350.12
2018-08-24T20:40:52.348Z,60321.67
2018-08-24T20:43:20.547Z,60323.71
2018-08-24T20:45:48.729Z,60327.77
2018-08-24T20:48:16.903Z,60329.80
2018-08-24T20:50:45.096Z,60366.39
2018-08-24T20:53:13.274Z,60328.79
2018-08-24T20:55:41.531Z,60343.01
2018-08-24T20:58:09.627Z,60340.98
2018-08-24T21:00:37.803Z,60352.16
2018-08-24T21:03:06.133Z,60345.04
2018-08-24T21:05:34.316Z,60371.46
2018-08-24T21:08:02.518Z,60340.98
2018-08-24T21:10:30.752Z,60345.04
2018-08-24T21:12:58.901Z,60342.00
2018-08-24T21:15:27.063Z,60334.88
2018-08-24T21:17:55.272Z,60356.22
2018-08-24T21:20:23.474Z,60329.80
2018-08-24T21:22:51.671Z,60343.01
2018-08-24T21:25:19.835Z,60363.34
2018-08-24T21:27:48.019Z,60345.04
2018-08-24T21:30:16.275Z,60345.04
2018-08-24T21:32:44.379Z,60358.25
2018-08-24T21:35:12.595Z,60326.75
2018-08-24T21:37:40.795Z,60358.25
2018-08-24T21:40:08.968Z,60350.12
2018-08-24T21:42:37.150Z,60350.12
2018-08-24T21:45:05.747Z,60353.18
2018-08-24T21:47:33.927Z,60365.37
2018-08-24T21:50:02.127Z,60355.21
2018-08-24T21:52:30.287Z,60362.32
2018-08-24T21:54:58.473Z,60305.41
2018-08-24T21:57:26.665Z,60333.87
2018-08-24T21:59:54.835Z,60361.30
2018-08-24T22:02:23.021Z,60355.21
2018-08-24T22:04:51.198Z,60356.22
2018-08-24T22:07:19.379Z,60336.91
2018-08-24T22:09:47.552Z,60358.25
2018-08-24T22:12:15.738Z,60332.85
2018-08-24T22:14:43.935Z,60369.43
2018-08-24T22:17:12.107Z,60356.22
2018-08-24T22:19:40.304Z,60347.08
2018-08-24T22:22:08.477Z,60363.34
2018-08-24T22:24:36.651Z,60327.77
2018-08-24T22:27:05.060Z,60357.24
2018-08-24T22:29:33.259Z,60327.77
2018-08-24T22:32:01.459Z,60357.24
2018-08-24T22:34:29.656Z,60366.39
2018-08-24T22:36:57.838Z,60353.18
2018-08-24T22:39:26.028Z,60364.35
2018-08-24T22:41:54.232Z,60348.09
2018-08-24T22:44:22.423Z,60356.22
2018-08-24T22:46:50.595Z,60345.04
2018-08-24T22:49:18.785Z,60356.22
2018-08-24T22:51:46.978Z,60353.18
2018-08-24T22:54:15.176Z,60353.18
2018-08-24T22:56:43.389Z,60357.24
2018-08-24T22:59:11.571Z,60346.06
2018-08-24T23:01:39.755Z,60340.98
2018-08-24T23:04:07.965Z,60353.18
2018-08-24T23:06:36.190Z,60370.45
2018-08-24T23:09:06.845Z,60359.27
2018-08-24T23:11:35.012Z,60352.16
2018-08-24T23:14:03.199Z,60353.18
2018-08-24T23:16:31.374Z,60336.91
2018-08-24T23:18:59.575Z,60351.14
2018-08-24T23:21:27.740Z,60360.29
2018-08-24T23:23:55.923Z,60355.21
2018-08-24T23:26:24.102Z,60369.43
2018-08-24T23:28:52.300Z,60332.85
2018-08-24T23:31:20.490Z,60338.95
2018-08-24T23:33:48.679Z,60336.91
2018-08-24T23:36:16.855Z,60358.25
2018-08-24T23:38:45.043Z,60351.14
2018-08-24T23:41:13.231Z,60361.30
2018-08-24T23:43:41.405Z,60360.29
2018-08-24T23:46:09.634Z,60331.84
2018-08-24T23:48:37.808Z,60359.27
2018-08-24T23:51:05.985Z,60360.29
2018-08-24T23:53:34.151Z,60357.24
2018-08-24T23:56:02.332Z,60375.53
2018-08-24T23:58:30.519Z,60334.88
